createdAt,value
2019-01-18T00:00:15.665Z,2.30
2019-01-18T00:02:44.072Z,3.00
2019-01-18T00:05:12.841Z,2.00
2019-01-18T00:07:42.032Z,3.50
2019-01-18T00:10:10.781Z,2.35
2019-01-18T00:12:39.282Z,3.10
2019-01-18T00:15:11.492Z,2.33
2019-01-18T00:17:39.925Z,2.60
2019-01-18T00:20:13.909Z,2.30
2019-01-18T00:22:42.549Z,2.30
2019-01-18T00:25:10.966Z,2.47
2019-01-18T00:27:39.384Z,2.10
2019-01-18T00:30:14.125Z,2.17
2019-01-18T00:32:42.566Z,2.05
2019-01-18T00:35:11.245Z,2.30
2019-01-18T00:37:40.090Z,2.70
2019-01-18T00:40:20.296Z,2.50
2019-01-18T00:42:48.941Z,2.10
2019-01-18T00:45:21.385Z,2.20
2019-01-18T00:47:49.809Z,1.80
2019-01-18T00:50:20.563Z,1.95
2019-01-18T00:52:48.975Z,2.02
2019-01-18T00:55:17.460Z,2.08
2019-01-18T00:57:46.372Z,2.02
2019-01-18T01:00:26.315Z,2.22
2019-01-18T01:02:55.149Z,2.50
2019-01-18T01:05:24.293Z,2.10
2019-01-18T01:07:52.939Z,2.05
2019-01-18T01:10:21.678Z,2.52
2019-01-18T01:12:50.232Z,2.20
2019-01-18T01:15:20.453Z,2.17
2019-01-18T01:17:50.357Z,2.17
2019-01-18T01:20:21.616Z,2.72
2019-01-18T01:22:50.370Z,2.08
2019-01-18T01:25:19.425Z,2.50
2019-01-18T01:27:48.343Z,1.82
2019-01-18T01:30:19.455Z,2.30
2019-01-18T01:32:48.354Z,2.20
2019-01-18T01:35:17.206Z,1.82
2019-01-18T01:37:45.612Z,2.20
2019-01-18T01:40:19.876Z,2.55
2019-01-18T01:42:48.345Z,2.40
2019-01-18T01:45:16.993Z,1.82
2019-01-18T01:47:45.610Z,2.25
2019-01-18T01:50:17.066Z,2.00
2019-01-18T01:52:45.740Z,1.90
2019-01-18T01:55:14.513Z,1.80
2019-01-18T01:57:43.085Z,1.80
2019-01-18T02:00:14.777Z,2.30
2019-01-18T02:02:43.890Z,1.72
2019-01-18T02:05:12.418Z,2.00
2019-01-18T02:07:41.001Z,1.80
2019-01-18T02:10:12.234Z,1.80
2019-01-18T02:12:40.810Z,1.87
2019-01-18T02:15:14.889Z,1.80
2019-01-18T02:17:43.449Z,1.87
2019-01-18T02:20:14.992Z,1.55
2019-01-18T02:22:43.552Z,2.00
2019-01-18T02:25:12.893Z,1.82
2019-01-18T02:27:41.473Z,1.55
2019-01-18T02:30:27.552Z,2.27
2019-01-18T02:32:56.103Z,1.67
2019-01-18T02:35:24.584Z,2.05
2019-01-18T02:37:53.700Z,1.60
2019-01-18T02:40:22.180Z,2.02
2019-01-18T02:42:50.585Z,1.50
2019-01-18T02:45:21.731Z,2.25
2019-01-18T02:47:50.155Z,1.92
2019-01-18T02:50:19.130Z,1.67
2019-01-18T02:52:47.764Z,1.50
2019-01-18T02:55:16.413Z,1.65
2019-01-18T02:57:44.858Z,1.50
2019-01-18T03:00:16.317Z,1.70
2019-01-18T03:02:44.794Z,1.50
2019-01-18T03:05:15.433Z,1.47
2019-01-18T03:07:44.626Z,1.50
2019-01-18T03:10:16.243Z,1.67
2019-01-18T03:12:44.654Z,1.82
2019-01-18T03:15:13.258Z,1.40
2019-01-18T03:17:41.674Z,1.67
2019-01-18T03:20:12.430Z,1.47
2019-01-18T03:22:41.151Z,1.50
2019-01-18T03:25:12.399Z,1.50
2019-01-18T03:27:40.797Z,1.50
2019-01-18T03:30:19.139Z,1.80
2019-01-18T03:32:45.786Z,1.65
2019-01-18T03:35:19.287Z,1.90
2019-01-18T03:37:47.757Z,1.62
2019-01-18T03:40:18.108Z,1.47
2019-01-18T03:42:47.131Z,1.40
2019-01-18T03:45:17.684Z,1.47
2019-01-18T03:47:46.094Z,1.30
2019-01-18T03:50:17.532Z,1.90
2019-01-18T03:52:45.965Z,1.42
2019-01-18T03:55:14.434Z,1.40
2019-01-18T03:57:43.272Z,1.65
2019-01-18T04:00:25.710Z,1.65
2019-01-18T04:02:50.233Z,1.40
2019-01-18T04:05:18.645Z,1.35
2019-01-18T04:07:47.051Z,1.70
2019-01-18T04:10:21.009Z,1.40
2019-01-18T04:12:49.548Z,1.20
2019-01-18T04:15:23.246Z,1.27
2019-01-18T04:17:51.841Z,1.37
2019-01-18T04:20:22.284Z,1.40
2019-01-18T04:22:52.128Z,1.30
2019-01-18T04:25:22.672Z,1.80
2019-01-18T04:27:51.090Z,1.50
2019-01-18T04:30:21.558Z,1.30
2019-01-18T04:32:50.653Z,1.40
2019-01-18T04:35:19.524Z,1.52
2019-01-18T04:37:47.927Z,1.22
2019-01-18T04:40:21.351Z,1.40
2019-01-18T04:42:49.833Z,1.30
2019-01-18T04:45:18.408Z,1.40
2019-01-18T04:47:47.788Z,1.60
2019-01-18T04:50:18.239Z,1.00
2019-01-18T04:52:46.643Z,1.40
2019-01-18T04:55:15.585Z,1.07
2019-01-18T04:57:44.006Z,1.45
2019-01-18T05:00:25.018Z,1.20
2019-01-18T05:02:53.504Z,1.20
2019-01-18T05:05:22.262Z,1.10
2019-01-18T05:07:51.301Z,1.10
2019-01-18T05:10:22.418Z,1.50
2019-01-18T05:12:50.855Z,1.37
2019-01-18T05:15:21.592Z,1.10
2019-01-18T05:17:50.026Z,1.05
2019-01-18T05:20:18.694Z,1.10
2019-01-18T05:22:47.320Z,1.30
2019-01-18T05:25:16.825Z,1.10
2019-01-18T05:27:45.377Z,1.20
2019-01-18T05:30:17.757Z,1.12
2019-01-18T05:32:46.345Z,1.30
2019-01-18T05:35:14.989Z,1.10
2019-01-18T05:37:43.539Z,1.10
2019-01-18T05:40:14.564Z,1.00
2019-01-18T05:42:43.033Z,0.90
2019-01-18T05:45:14.615Z,1.25
2019-01-18T05:47:43.030Z,1.00
2019-01-18T05:50:14.252Z,1.05
2019-01-18T05:52:43.327Z,0.93
2019-01-18T05:55:12.084Z,1.02
2019-01-18T05:57:40.936Z,1.40
2019-01-18T06:00:25.971Z,1.00
2019-01-18T06:02:54.381Z,1.30
2019-01-18T06:05:23.070Z,1.20
2019-01-18T06:07:52.242Z,1.10
2019-01-18T06:10:20.650Z,1.00
2019-01-18T06:12:49.072Z,1.10
2019-01-18T06:15:18.089Z,1.10
2019-01-18T06:17:46.505Z,1.30
2019-01-18T06:20:16.361Z,1.25
2019-01-18T06:22:45.356Z,1.07
2019-01-18T06:25:13.839Z,1.27
2019-01-18T06:27:44.866Z,1.50
2019-01-18T06:30:21.401Z,1.30
2019-01-18T06:32:49.816Z,1.25
2019-01-18T06:35:18.301Z,1.30
2019-01-18T06:37:47.235Z,1.30
2019-01-18T06:40:22.978Z,1.60
2019-01-18T06:42:51.900Z,1.25
2019-01-18T06:45:22.941Z,1.30
2019-01-18T06:47:51.417Z,1.60
2019-01-18T06:50:21.373Z,1.37
2019-01-18T06:52:49.786Z,1.30
2019-01-18T06:55:18.202Z,1.30
2019-01-18T06:57:47.365Z,1.25
2019-01-18T07:00:24.434Z,1.45
2019-01-18T07:02:53.146Z,1.35
2019-01-18T07:05:21.616Z,1.30
2019-01-18T07:07:50.109Z,1.30
2019-01-18T07:10:21.246Z,1.17
2019-01-18T07:12:49.982Z,1.20
2019-01-18T07:15:18.463Z,1.30
2019-01-18T07:17:47.170Z,1.10
2019-01-18T07:20:20.568Z,1.00
2019-01-18T07:22:48.989Z,1.30
2019-01-18T07:25:20.538Z,1.37
2019-01-18T07:27:48.975Z,1.10
2019-01-18T07:30:27.436Z,1.32
2019-01-18T07:32:55.922Z,1.20
2019-01-18T07:35:24.405Z,1.47
2019-01-18T07:37:53.280Z,0.95
2019-01-18T07:40:22.055Z,1.30
2019-01-18T07:42:50.468Z,1.30
2019-01-18T07:45:28.356Z,1.20
2019-01-18T07:47:56.767Z,1.30
2019-01-18T07:50:25.182Z,1.22
2019-01-18T07:52:53.814Z,1.10
2019-01-18T07:55:22.302Z,1.15
2019-01-18T07:57:50.717Z,1.85
2019-01-18T08:00:24.857Z,1.10
2019-01-18T08:02:53.258Z,1.12
2019-01-18T08:05:22.998Z,1.30
2019-01-18T08:07:51.857Z,1.42
2019-01-18T08:10:22.231Z,1.40
2019-01-18T08:12:50.714Z,1.20
2019-01-18T08:15:21.904Z,1.27
2019-01-18T08:17:50.502Z,1.70
2019-01-18T08:20:21.811Z,1.10
2019-01-18T08:22:50.906Z,1.30
2019-01-18T08:25:19.318Z,1.30
2019-01-18T08:27:47.903Z,1.55
2019-01-18T08:30:22.529Z,1.37
2019-01-18T08:32:51.247Z,1.15
2019-01-18T08:35:21.201Z,1.15
2019-01-18T08:37:49.898Z,1.30
2019-01-18T08:40:26.773Z,1.17
2019-01-18T08:42:55.409Z,1.62
2019-01-18T08:45:29.708Z,1.00
2019-01-18T08:47:58.133Z,1.22
2019-01-18T08:50:27.073Z,1.37
2019-01-18T08:52:55.485Z,3.65
2019-01-18T08:55:23.909Z,2.23
2019-01-18T08:57:52.401Z,2.40
2019-01-18T09:00:24.056Z,3.70
2019-01-18T09:02:52.464Z,3.00
2019-01-18T09:05:23.676Z,4.35
2019-01-18T09:07:52.153Z,3.37
2019-01-18T09:10:23.198Z,3.92
2019-01-18T09:12:52.625Z,3.00
2019-01-18T09:15:21.211Z,3.20
2019-01-18T09:17:49.683Z,3.37
2019-01-18T09:20:21.671Z,3.10
2019-01-18T09:22:50.228Z,5.92
2019-01-18T09:25:18.638Z,6.00
2019-01-18T09:27:47.465Z,4.85
2019-01-18T09:30:18.019Z,6.20
2019-01-18T09:32:46.609Z,4.27
2019-01-18T09:35:18.620Z,3.73
2019-01-18T09:37:47.158Z,3.80
2019-01-18T09:40:18.305Z,4.73
2019-01-18T09:42:47.585Z,2.90
2019-01-18T09:45:16.070Z,3.83
2019-01-18T09:47:44.622Z,2.53
2019-01-18T09:50:21.468Z,3.57
2019-01-18T09:52:49.944Z,2.53
2019-01-18T09:55:18.422Z,2.80
2019-01-18T09:57:48.344Z,3.17
2019-01-18T10:00:22.782Z,2.60
2019-01-18T10:02:51.192Z,2.85
2019-01-18T10:05:20.102Z,2.60
2019-01-18T10:07:48.591Z,2.83
2019-01-18T10:10:19.531Z,2.27
2019-01-18T10:12:49.354Z,2.60
2019-01-18T10:15:22.969Z,2.90
2019-01-18T10:17:51.517Z,2.40
2019-01-18T10:20:20.341Z,3.05
2019-01-18T10:22:50.555Z,2.43
2019-01-18T10:25:19.502Z,2.80
2019-01-18T10:27:48.547Z,1.90
2019-01-18T10:30:20.076Z,2.92
2019-01-18T10:32:48.566Z,2.17
2019-01-18T10:35:18.190Z,2.47
2019-01-18T10:37:47.110Z,1.73
2019-01-18T10:40:16.664Z,2.50
2019-01-18T10:42:46.439Z,2.40
2019-01-18T10:45:16.404Z,1.80
2019-01-18T10:47:45.263Z,1.80
2019-01-18T10:50:19.522Z,2.27
2019-01-18T10:52:48.185Z,1.70
2019-01-18T10:55:16.658Z,1.50
2019-01-18T10:57:45.115Z,1.90
2019-01-18T11:00:16.528Z,2.30
2019-01-18T11:02:44.937Z,1.87
2019-01-18T11:05:15.254Z,2.27
2019-01-18T11:07:43.836Z,1.50
2019-01-18T11:10:14.185Z,2.33
2019-01-18T11:12:43.415Z,1.60
2019-01-18T11:15:17.638Z,2.10
2019-01-18T11:17:46.129Z,2.20
2019-01-18T11:20:18.197Z,2.10
2019-01-18T11:22:46.777Z,1.63
2019-01-18T11:25:15.268Z,1.57
2019-01-18T11:27:44.149Z,2.30
2019-01-18T11:30:15.469Z,1.77
2019-01-18T11:32:43.948Z,1.67
2019-01-18T11:35:12.978Z,1.63
2019-01-18T11:37:41.393Z,2.43
2019-01-18T11:40:19.418Z,1.80
2019-01-18T11:42:47.906Z,2.27
2019-01-18T11:45:16.557Z,2.00
2019-01-18T11:47:45.740Z,2.00
2019-01-18T11:50:25.801Z,1.55
2019-01-18T11:52:54.493Z,2.30
2019-01-18T11:55:23.144Z,1.60
2019-01-18T11:57:51.552Z,2.40
2019-01-18T12:00:25.293Z,2.10
2019-01-18T12:02:53.884Z,1.73
2019-01-18T12:05:22.385Z,2.03
2019-01-18T12:07:52.010Z,1.40
2019-01-18T12:10:26.142Z,2.15
2019-01-18T12:12:54.624Z,2.10
2019-01-18T12:15:23.606Z,2.10
2019-01-18T12:17:52.019Z,2.80
2019-01-18T12:20:23.518Z,2.37
2019-01-18T12:22:52.932Z,2.00
2019-01-18T12:25:21.489Z,2.63
2019-01-18T12:27:49.909Z,3.93
2019-01-18T12:30:26.803Z,3.20
2019-01-18T12:32:55.285Z,7.47
2019-01-18T12:35:23.772Z,8.40
2019-01-18T12:37:52.528Z,10.28
2019-01-18T12:40:22.222Z,10.23
2019-01-18T12:42:50.646Z,18.92
2019-01-18T12:45:22.185Z,20.97
2019-01-18T12:47:50.636Z,19.77
2019-01-18T12:50:27.742Z,22.77
2019-01-18T12:52:56.393Z,23.57
2019-01-18T12:55:24.882Z,20.60
2019-01-18T12:57:53.620Z,19.43
2019-01-18T13:00:27.291Z,18.20
2019-01-18T13:02:55.977Z,17.45
2019-01-18T13:05:31.287Z,21.17
2019-01-18T13:07:59.706Z,17.62
2019-01-18T13:10:28.127Z,17.25
2019-01-18T13:12:56.596Z,17.02
2019-01-18T13:15:45.953Z,16.97
2019-01-18T13:18:15.037Z,16.45
2019-01-18T13:20:43.470Z,15.68
2019-01-18T13:23:11.997Z,16.07
2019-01-18T13:25:40.802Z,14.68
2019-01-18T13:28:09.273Z,15.25
2019-01-18T13:30:37.836Z,14.90
2019-01-18T13:33:06.581Z,14.85
2019-01-18T13:35:35.039Z,14.83
2019-01-18T13:38:03.526Z,13.45
2019-01-18T13:40:33.262Z,14.87
2019-01-18T13:43:07.969Z,13.88
2019-01-18T13:45:36.393Z,13.05
2019-01-18T13:48:05.695Z,13.15
2019-01-18T13:50:34.189Z,14.00
2019-01-18T13:53:02.599Z,12.95
2019-01-18T13:55:31.353Z,13.40
2019-01-18T13:57:59.768Z,12.90
2019-01-18T14:00:28.193Z,11.90
2019-01-18T14:02:56.817Z,12.35
2019-01-18T14:05:25.238Z,11.50
2019-01-18T14:07:53.713Z,11.95
2019-01-18T14:10:33.886Z,10.63
2019-01-18T14:13:02.385Z,10.25
2019-01-18T14:15:30.838Z,10.95
2019-01-18T14:17:59.605Z,10.28
2019-01-18T14:20:29.367Z,10.38
2019-01-18T14:22:57.803Z,12.05
2019-01-18T14:25:26.445Z,9.50
2019-01-18T14:27:55.106Z,9.85
2019-01-18T14:30:27.918Z,8.73
2019-01-18T14:32:56.834Z,8.95
2019-01-18T14:35:25.517Z,9.60
2019-01-18T14:37:54.087Z,11.40
2019-01-18T14:40:22.793Z,8.90
2019-01-18T14:42:54.935Z,10.20
2019-01-18T14:45:29.994Z,9.35
2019-01-18T14:47:58.439Z,8.23
2019-01-18T14:50:27.033Z,10.15
2019-01-18T14:52:56.160Z,8.98
2019-01-18T14:55:24.621Z,10.72
2019-01-18T14:57:53.647Z,8.53
2019-01-18T15:00:24.921Z,8.93
2019-01-18T15:02:53.341Z,8.63
2019-01-18T15:05:21.763Z,7.28
2019-01-18T15:07:50.838Z,10.63
2019-01-18T15:10:21.210Z,9.28
2019-01-18T15:12:52.005Z,10.55
2019-01-18T15:15:21.339Z,8.55
2019-01-18T15:17:50.884Z,10.68
2019-01-18T15:20:21.742Z,8.53
2019-01-18T15:22:50.319Z,8.78
2019-01-18T15:25:18.902Z,9.43
2019-01-18T15:27:47.396Z,7.70
2019-01-18T15:30:22.608Z,7.97
2019-01-18T15:32:51.196Z,8.53
2019-01-18T15:35:22.455Z,8.53
2019-01-18T15:37:51.207Z,8.28
2019-01-18T15:40:21.967Z,9.60
2019-01-18T15:42:50.550Z,8.10
2019-01-18T15:45:19.495Z,7.65
2019-01-18T15:47:48.488Z,9.23
2019-01-18T15:50:19.952Z,7.95
2019-01-18T15:52:49.618Z,9.25
2019-01-18T15:55:18.175Z,8.13
2019-01-18T15:57:46.605Z,7.20
2019-01-18T16:00:23.757Z,7.28
2019-01-18T16:02:52.508Z,7.58
2019-01-18T16:05:21.016Z,6.75
2019-01-18T16:07:50.743Z,6.97
2019-01-18T16:10:19.162Z,7.78
2019-01-18T16:12:47.653Z,7.53
2019-01-18T16:15:19.304Z,6.53
2019-01-18T16:17:49.069Z,7.97
2019-01-18T16:20:19.928Z,6.80
2019-01-18T16:22:49.027Z,4.37
2019-01-18T16:25:20.400Z,4.47
2019-01-18T16:27:48.828Z,5.03
2019-01-18T16:30:22.846Z,5.20
2019-01-18T16:32:51.501Z,5.17
2019-01-18T16:35:20.204Z,5.20
2019-01-18T16:37:49.025Z,5.87
2019-01-18T16:40:23.381Z,4.65
2019-01-18T16:42:55.193Z,6.65
2019-01-18T16:45:23.605Z,4.42
2019-01-18T16:47:53.808Z,5.05
2019-01-18T16:50:22.997Z,4.20
2019-01-18T16:52:51.593Z,3.83
2019-01-18T16:55:20.050Z,4.75
2019-01-18T16:57:48.612Z,4.55
2019-01-18T17:00:32.064Z,4.30
2019-01-18T17:03:00.526Z,4.60
2019-01-18T17:05:29.021Z,3.80
2019-01-18T17:07:57.466Z,3.85
2019-01-18T17:10:26.609Z,4.35
2019-01-18T17:12:55.103Z,4.03
2019-01-18T17:15:23.520Z,3.95
2019-01-18T17:17:52.140Z,4.00
2019-01-18T17:20:23.691Z,3.85
2019-01-18T17:22:52.306Z,3.95
2019-01-18T17:25:20.855Z,3.95
2019-01-18T17:27:49.345Z,3.98
2019-01-18T17:30:22.437Z,3.55
2019-01-18T17:32:51.627Z,3.95
2019-01-18T17:35:23.251Z,3.85
2019-01-18T17:37:54.811Z,3.45
2019-01-18T17:40:26.359Z,3.83
2019-01-18T17:43:00.564Z,3.72
2019-01-18T17:45:32.062Z,3.15
2019-01-18T17:48:07.213Z,3.25
2019-01-18T17:51:11.929Z,3.22
2019-01-18T17:53:58.835Z,3.87
2019-01-18T17:56:50.850Z,3.60
2019-01-18T17:59:45.210Z,3.45
2019-01-18T18:02:16.718Z,3.50
2019-01-18T18:04:58.744Z,3.55
2019-01-18T18:07:35.926Z,4.35
2019-01-18T18:10:25.655Z,3.42
2019-01-18T18:13:17.839Z,4.00
2019-01-18T18:16:01.566Z,3.30
2019-01-18T18:18:57.274Z,3.65
2019-01-18T18:21:37.560Z,3.70
2019-01-18T18:24:11.628Z,3.50
2019-01-18T18:26:58.181Z,3.02
2019-01-18T18:29:32.630Z,2.95
2019-01-18T18:32:13.317Z,3.27
2019-01-18T18:34:53.914Z,3.55
2019-01-18T18:37:42.122Z,3.05
2019-01-18T18:40:16.378Z,3.10
2019-01-18T18:43:03.315Z,3.42
2019-01-18T18:45:49.152Z,3.05
2019-01-18T18:48:20.893Z,3.80
2019-01-18T18:51:08.953Z,3.20
2019-01-18T18:54:09.732Z,2.98
2019-01-18T18:56:43.838Z,3.08
2019-01-18T18:59:18.581Z,2.95
2019-01-18T19:02:12.821Z,3.30
2019-01-18T19:04:50.209Z,3.40
2019-01-18T19:07:48.697Z,3.08
2019-01-18T19:10:39.335Z,2.80
2019-01-18T19:13:29.306Z,2.90
2019-01-18T19:16:06.815Z,3.35
2019-01-18T19:18:47.062Z,2.75
2019-01-18T19:21:35.331Z,2.72
2019-01-18T19:24:27.552Z,3.37
2019-01-18T19:27:26.363Z,2.90
2019-01-18T19:30:17.330Z,2.50
2019-01-18T19:33:05.951Z,2.90
2019-01-18T19:35:45.858Z,2.47
2019-01-18T19:38:36.747Z,2.72
2019-01-18T19:41:19.975Z,2.75
2019-01-18T19:44:07.226Z,2.27
2019-01-18T19:46:47.055Z,2.65
2019-01-18T19:49:33.475Z,2.70
2019-01-18T19:52:07.739Z,2.55
2019-01-18T19:54:41.179Z,2.70
2019-01-18T19:57:20.806Z,2.33
2019-01-18T20:00:06.427Z,2.67
2019-01-18T20:02:46.957Z,2.58
2019-01-18T20:05:21.398Z,2.72
2019-01-18T20:08:05.022Z,2.30
2019-01-18T20:10:37.007Z,2.12
2019-01-18T20:13:20.002Z,2.40
2019-01-18T20:16:10.645Z,2.55
2019-01-18T20:19:00.080Z,2.50
2019-01-18T20:21:52.609Z,2.35
2019-01-18T20:24:26.707Z,2.85
2019-01-18T20:27:07.428Z,2.10
2019-01-18T20:29:53.897Z,2.40
2019-01-18T20:32:26.550Z,2.20
2019-01-18T20:35:14.548Z,2.22
2019-01-18T20:37:46.521Z,1.98
2019-01-18T20:40:27.010Z,2.40
2019-01-18T20:43:18.170Z,2.05
2019-01-18T20:46:15.406Z,2.27
2019-01-18T20:48:52.775Z,2.50
2019-01-18T20:51:24.260Z,1.98
2019-01-18T20:54:12.555Z,2.25
2019-01-18T20:56:47.586Z,2.30
2019-01-18T20:59:19.126Z,2.00
2019-01-18T21:02:07.343Z,1.82
2019-01-18T21:04:48.550Z,2.05
2019-01-18T21:07:20.087Z,1.85
2019-01-18T21:10:14.247Z,2.70
2019-01-18T21:12:45.816Z,2.25
2019-01-18T21:15:23.325Z,1.90
2019-01-18T21:18:10.231Z,2.20
2019-01-18T21:20:56.545Z,1.92
2019-01-18T21:23:33.799Z,1.85
2019-01-18T21:26:08.356Z,2.50
2019-01-18T21:28:48.999Z,1.82
2019-01-18T21:31:38.520Z,2.00
2019-01-18T21:34:32.959Z,2.45
2019-01-18T21:37:17.200Z,2.00
2019-01-18T21:40:05.473Z,2.45
2019-01-18T21:42:55.114Z,1.90
2019-01-18T21:45:29.591Z,2.05
2019-01-18T21:48:25.110Z,2.22
2019-01-18T21:51:14.877Z,2.00
2019-01-18T21:54:06.924Z,2.52
2019-01-18T21:56:47.263Z,2.10
2019-01-18T21:59:36.624Z,1.57
2019-01-18T22:02:27.633Z,1.98
2019-01-18T22:05:08.418Z,1.82
2019-01-18T22:07:54.933Z,1.80
2019-01-18T22:10:41.643Z,1.95
2019-01-18T22:13:30.943Z,2.00
2019-01-18T22:16:14.571Z,1.82
2019-01-18T22:19:10.017Z,1.67
2019-01-18T22:21:57.977Z,1.70
2019-01-18T22:24:44.281Z,1.75
2019-01-18T22:27:22.598Z,1.85
2019-01-18T22:29:54.082Z,2.35
2019-01-18T22:32:34.409Z,1.87
2019-01-18T22:35:14.996Z,1.87
2019-01-18T22:38:01.582Z,2.00
2019-01-18T22:40:52.384Z,2.25
2019-01-18T22:43:41.150Z,1.92
2019-01-18T22:46:32.138Z,1.52
2019-01-18T22:49:18.271Z,1.70
2019-01-18T22:52:07.688Z,1.80
2019-01-18T22:54:59.142Z,2.10
2019-01-18T22:57:39.477Z,2.37
2019-01-18T23:00:34.188Z,1.50
2019-01-18T23:03:14.475Z,1.57
2019-01-18T23:05:57.544Z,2.35
2019-01-18T23:08:38.239Z,1.80
2019-01-18T23:11:12.966Z,2.35
2019-01-18T23:14:09.593Z,1.80
2019-01-18T23:16:42.513Z,2.20
2019-01-18T23:19:16.923Z,1.75
2019-01-18T23:22:00.244Z,1.72
2019-01-18T23:24:34.356Z,1.65
2019-01-18T23:27:11.653Z,1.50
2019-01-18T23:30:02.682Z,2.00
2019-01-18T23:32:37.810Z,1.92
2019-01-18T23:35:18.141Z,1.40
2019-01-18T23:37:59.136Z,2.00
2019-01-18T23:40:45.764Z,1.80
2019-01-18T23:43:32.656Z,1.72
2019-01-18T23:46:16.067Z,1.90
2019-01-18T23:49:00.541Z,2.22
2019-01-18T23:51:32.040Z,1.80
2019-01-18T23:54:06.725Z,1.65
2019-01-18T23:56:44.047Z,1.82
2019-01-18T23:59:15.920Z,2.27
